sensor_id;sensor_type;location;lat;lon;timestamp;pressure;altitude;pressure_sealevel;temperature;humidity
45403;BME280;47427;51.976;5.326;2023-02-12T00:03:19;103802.00;;;7.85;100.00
45403;BME280;47427;51.976;5.326;2023-02-12T00:06:43;103803.19;;;7.88;100.00
45403;BME280;47427;51.976;5.326;2023-02-12T00:10:14;103789.47;;;7.80;100.00
45403;BME280;47427;51.976;5.326;2023-02-12T00:13:41;103803.28;;;7.90;100.00
45403;BME280;47427;51.976;5.326;2023-02-12T00:17:16;103791.44;;;7.83;100.00
45403;BME280;47427;51.976;5.326;2023-02-12T00:20:40;103796.75;;;7.85;100.00
45403;BME280;47427;51.976;5.326;2023-02-12T00:24:14;103802.94;;;7.85;100.00
45403;BME280;47427;51.976;5.326;2023-02-12T00:27:38;103799.03;;;7.80;100.00
45403;BME280;47427;51.976;5.326;2023-02-12T00:31:30;103806.72;;;7.78;100.00
45403;BME280;47427;51.976;5.326;2023-02-12T00:34:59;103804.91;;;7.77;100.00
45403;BME280;47427;51.976;5.326;2023-02-12T00:38:31;103798.88;;;7.78;100.00
45403;BME280;47427;51.976;5.326;2023-02-12T00:42:13;103800.44;;;7.76;100.00
45403;BME280;47427;51.976;5.326;2023-02-12T00:45:54;103803.84;;;7.75;100.00
45403;BME280;47427;51.976;5.326;2023-02-12T00:49:44;103804.63;;;7.74;100.00
45403;BME280;47427;51.976;5.326;2023-02-12T00:53:15;103805.56;;;7.75;100.00
45403;BME280;47427;51.976;5.326;2023-02-12T00:56:52;103801.22;;;7.75;100.00
45403;BME280;47427;51.976;5.326;2023-02-12T01:00:19;103801.88;;;7.73;100.00
45403;BME280;47427;51.976;5.326;2023-02-12T01:03:48;103801.88;;;7.73;100.00
45403;BME280;47427;51.976;5.326;2023-02-12T01:07:16;103814.06;;;7.72;100.00
45403;BME280;47427;51.976;5.326;2023-02-12T01:10:44;103803.59;;;7.72;100.00
45403;BME280;47427;51.976;5.326;2023-02-12T01:14:06;103790.13;;;7.68;100.00
45403;BME280;47427;51.976;5.326;2023-02-12T01:17:33;103794.56;;;7.69;100.00
45403;BME280;47427;51.976;5.326;2023-02-12T01:20:55;103799.13;;;7.71;100.00
45403;BME280;47427;51.976;5.326;2023-02-12T01:24:23;103799.13;;;7.71;100.00
45403;BME280;47427;51.976;5.326;2023-02-12T01:27:56;103791.28;;;7.71;100.00
45403;BME280;47427;51.976;5.326;2023-02-12T01:31:32;103793.25;;;7.64;100.00
45403;BME280;47427;51.976;5.326;2023-02-12T01:35:23;103794.97;;;7.63;100.00
45403;BME280;47427;51.976;5.326;2023-02-12T01:38:59;103793.25;;;7.53;100.00
45403;BME280;47427;51.976;5.326;2023-02-12T01:42:23;103792.44;;;7.54;100.00
45403;BME280;47427;51.976;5.326;2023-02-12T01:45:57;103790.78;;;7.55;100.00
45403;BME280;47427;51.976;5.326;2023-02-12T01:49:39;103795.34;;;7.57;100.00
45403;BME280;47427;51.976;5.326;2023-02-12T01:53:04;103795.47;;;7.59;100.00
45403;BME280;47427;51.976;5.326;2023-02-12T01:56:27;103791.53;;;7.64;100.00
45403;BME280;47427;51.976;5.326;2023-02-12T01:59:51;103799.28;;;7.63;100.00
45403;BME280;47427;51.976;5.326;2023-02-12T02:03:34;103801.88;;;7.63;100.00
45403;BME280;47427;51.976;5.326;2023-02-12T02:07:05;103797.72;;;7.65;100.00
45403;BME280;47427;51.976;5.326;2023-02-12T02:10:31;103783.59;;;7.63;100.00
45403;BME280;47427;51.976;5.326;2023-02-12T02:13:58;103795.22;;;7.66;100.00
45403;BME280;47427;51.976;5.326;2023-02-12T02:18:01;103801.63;;;7.70;100.00
45403;BME280;47427;51.976;5.326;2023-02-12T02:38:54;103786.22;;;7.63;100.00
45403;BME280;47427;51.976;5.326;2023-02-12T02:42:40;103779.03;;;7.60;100.00
45403;BME280;47427;51.976;5.326;2023-02-12T02:50:14;103773.25;;;7.54;100.00
45403;BME280;47427;51.976;5.326;2023-02-12T02:53:56;103780.19;;;7.53;100.00
45403;BME280;47427;51.976;5.326;2023-02-12T02:58:08;103776.41;;;7.50;100.00
45403;BME280;47427;51.976;5.326;2023-02-12T03:01:35;103779.28;;;7.53;100.00
45403;BME280;47427;51.976;5.326;2023-02-12T03:05:17;103769.34;;;7.49;100.00
45403;BME280;47427;51.976;5.326;2023-02-12T03:13:33;103771.56;;;7.54;100.00
45403;BME280;47427;51.976;5.326;2023-02-12T03:20:57;103761.09;;;7.54;100.00
45403;BME280;47427;51.976;5.326;2023-02-12T03:24:45;103770.53;;;7.52;100.00
45403;BME280;47427;51.976;5.326;2023-02-12T03:28:33;103766.88;;;7.50;100.00
45403;BME280;47427;51.976;5.326;2023-02-12T03:32:39;103761.75;;;7.52;100.00
45403;BME280;47427;51.976;5.326;2023-02-12T03:37:00;103765.03;;;7.49;100.00
45403;BME280;47427;51.976;5.326;2023-02-12T03:40:43;103764.91;;;7.48;100.00
45403;BME280;47427;51.976;5.326;2023-02-12T03:52:07;103770.63;;;7.44;100.00
45403;BME280;47427;51.976;5.326;2023-02-12T03:55:33;103774.16;;;7.44;100.00
45403;BME280;47427;51.976;5.326;2023-02-12T03:58:59;103773.25;;;7.44;100.00
45403;BME280;47427;51.976;5.326;2023-02-12T04:02:24;103782.00;;;7.44;100.00
45403;BME280;47427;51.976;5.326;2023-02-12T04:05:45;103785.66;;;7.46;100.00
45403;BME280;47427;51.976;5.326;2023-02-12T04:09:10;103779.13;;;7.51;100.00
45403;BME280;47427;51.976;5.326;2023-02-12T04:33:17;103797.31;;;7.40;100.00
45403;BME280;47427;51.976;5.326;2023-02-12T04:41:05;103806.53;;;7.36;100.00
45403;BME280;47427;51.976;5.326;2023-02-12T04:44:35;103812.56;;;7.35;100.00
45403;BME280;47427;51.976;5.326;2023-02-12T04:48:13;103796.88;;;7.25;100.00
45403;BME280;47427;51.976;5.326;2023-02-12T04:51:57;103805.38;;;7.32;100.00
45403;BME280;47427;51.976;5.326;2023-02-12T04:55:19;103806.44;;;7.34;100.00
45403;BME280;47427;51.976;5.326;2023-02-12T04:59:01;103823.91;;;7.35;100.00
45403;BME280;47427;51.976;5.326;2023-02-12T05:02:34;103814.28;;;7.34;100.00
45403;BME280;47427;51.976;5.326;2023-02-12T05:06:12;103811.66;;;7.34;100.00
45403;BME280;47427;51.976;5.326;2023-02-12T05:09:38;103814.13;;;7.33;100.00
45403;BME280;47427;51.976;5.326;2023-02-12T05:13:00;103822.09;;;7.34;100.00
45403;BME280;47427;51.976;5.326;2023-02-12T05:16:33;103820.78;;;7.29;100.00
45403;BME280;47427;51.976;5.326;2023-02-12T05:19:55;103823.50;;;7.31;100.00
45403;BME280;47427;51.976;5.326;2023-02-12T05:23:16;103821.44;;;7.27;100.00
45403;BME280;47427;51.976;5.326;2023-02-12T05:26:51;103811.00;;;7.27;100.00
45403;BME280;47427;51.976;5.326;2023-02-12T05:30:24;103817.78;;;7.25;100.00
45403;BME280;47427;51.976;5.326;2023-02-12T05:33:49;103814.09;;;7.23;100.00
45403;BME280;47427;51.976;5.326;2023-02-12T05:37:26;103821.81;;;7.31;100.00
45403;BME280;47427;51.976;5.326;2023-02-12T05:41:23;103817.53;;;7.32;100.00
45403;BME280;47427;51.976;5.326;2023-02-12T05:44:44;103817.53;;;7.32;100.00
45403;BME280;47427;51.976;5.326;2023-02-12T05:48:17;103822.75;;;7.32;100.00
45403;BME280;47427;51.976;5.326;2023-02-12T05:51:44;103820.41;;;7.35;100.00
45403;BME280;47427;51.976;5.326;2023-02-12T05:55:12;103820.91;;;7.41;100.00
45403;BME280;47427;51.976;5.326;2023-02-12T05:58:36;103828.09;;;7.44;100.00
45403;BME280;47427;51.976;5.326;2023-02-12T06:02:02;103810.63;;;7.43;100.00
45403;BME280;47427;51.976;5.326;2023-02-12T06:05:29;103819.38;;;7.43;100.00
45403;BME280;47427;51.976;5.326;2023-02-12T06:09:04;103814.94;;;7.42;100.00
45403;BME280;47427;51.976;5.326;2023-02-12T06:12:30;103827.69;;;7.39;100.00
45403;BME280;47427;51.976;5.326;2023-02-12T06:16:25;103823.91;;;7.35;100.00
45403;BME280;47427;51.976;5.326;2023-02-12T06:19:58;103814.13;;;7.33;100.00
45403;BME280;47427;51.976;5.326;2023-02-12T06:23:46;103826.78;;;7.28;100.00
45403;BME280;47427;51.976;5.326;2023-02-12T06:27:17;103824.31;;;7.30;100.00
45403;BME280;47427;51.976;5.326;2023-02-12T06:30:42;103832.91;;;7.29;100.00
45403;BME280;47427;51.976;5.326;2023-02-12T06:34:18;103832.22;;;7.21;100.00
45403;BME280;47427;51.976;5.326;2023-02-12T06:38:02;103836.97;;;7.25;100.00
45403;BME280;47427;51.976;5.326;2023-02-12T06:41:28;103842.44;;;7.28;100.00
45403;BME280;47427;51.976;5.326;2023-02-12T06:44:55;103839.72;;;7.27;100.00
45403;BME280;47427;51.976;5.326;2023-02-12T06:48:18;103839.97;;;7.30;100.00
45403;BME280;47427;51.976;5.326;2023-02-12T06:51:46;103836.16;;;7.26;100.00
45403;BME280;47427;51.976;5.326;2023-02-12T06:55:18;103839.06;;;7.29;100.00
45403;BME280;47427;51.976;5.326;2023-02-12T06:58:42;103849.22;;;7.26;100.00
45403;BME280;47427;51.976;5.326;2023-02-12T07:02:09;103845.84;;;7.27;100.00
45403;BME280;47427;51.976;5.326;2023-02-12T07:05:37;103849.59;;;7.21;100.00
45403;BME280;47427;51.976;5.326;2023-02-12T07:09:12;103850.66;;;7.23;100.00
45403;BME280;47427;51.976;5.326;2023-02-12T07:12:36;103861.53;;;7.27;100.00
45403;BME280;47427;51.976;5.326;2023-02-12T07:16:06;103860.72;;;7.28;100.00
45403;BME280;47427;51.976;5.326;2023-02-12T07:19:42;103865.28;;;7.21;100.00
45403;BME280;47427;51.976;5.326;2023-02-12T07:23:09;103866.59;;;7.26;100.00
45403;BME280;47427;51.976;5.326;2023-02-12T07:26:57;103864.13;;;7.27;100.00
45403;BME280;47427;51.976;5.326;2023-02-12T07:30:19;103865.44;;;7.32;100.00
45403;BME280;47427;51.976;5.326;2023-02-12T07:33:46;103875.63;;;7.29;100.00
45403;BME280;47427;51.976;5.326;2023-02-12T07:37:11;103879.91;;;7.29;100.00
45403;BME280;47427;51.976;5.326;2023-02-12T07:41:09;103878.38;;;7.31;100.00
45403;BME280;47427;51.976;5.326;2023-02-12T07:45:00;103885.28;;;7.30;100.00
45403;BME280;47427;51.976;5.326;2023-02-12T07:48:24;103877.94;;;7.26;100.00
45403;BME280;47427;51.976;5.326;2023-02-12T07:51:51;103886.97;;;7.20;100.00
45403;BME280;47427;51.976;5.326;2023-02-12T07:55:16;103886.56;;;7.25;100.00
45403;BME280;47427;51.976;5.326;2023-02-12T07:58:44;103885.66;;;7.25;100.00
45403;BME280;47427;51.976;5.326;2023-02-12T08:02:11;103890.00;;;7.34;100.00
45403;BME280;47427;51.976;5.326;2023-02-12T08:05:40;103888.81;;;7.31;100.00
45403;BME280;47427;51.976;5.326;2023-02-12T08:09:12;103897.22;;;7.37;100.00
45403;BME280;47427;51.976;5.326;2023-02-12T08:12:47;103898.13;;;7.37;100.00
45403;BME280;47427;51.976;5.326;2023-02-12T08:16:19;103890.94;;;7.35;100.00
45403;BME280;47427;51.976;5.326;2023-02-12T08:19:49;103899.66;;;7.35;100.00
45403;BME280;47427;51.976;5.326;2023-02-12T08:23:18;103906.84;;;7.38;100.00
45403;BME280;47427;51.976;5.326;2023-02-12T08:27:11;103907.38;;;7.44;100.00
45403;BME280;47427;51.976;5.326;2023-02-12T08:30:45;103917.34;;;7.48;100.00
45403;BME280;47427;51.976;5.326;2023-02-12T08:34:24;103923.81;;;7.33;100.00
45403;BME280;47427;51.976;5.326;2023-02-12T08:37:54;103922.88;;;7.22;100.00
45403;BME280;47427;51.976;5.326;2023-02-12T08:41:27;103923.69;;;7.42;100.00
45403;BME280;47427;51.976;5.326;2023-02-12T08:44:59;103926.34;;;7.52;100.00
45403;BME280;47427;51.976;5.326;2023-02-12T08:48:22;103941.13;;;7.51;100.00
45403;BME280;47427;51.976;5.326;2023-02-12T08:51:51;103928.84;;;7.50;100.00
45403;BME280;47427;51.976;5.326;2023-02-12T08:55:12;103932.88;;;7.57;100.00
45403;BME280;47427;51.976;5.326;2023-02-12T08:58:35;103925.88;;;7.66;100.00
45403;BME280;47427;51.976;5.326;2023-02-12T09:02:16;103942.47;;;7.77;100.00
45403;BME280;47427;51.976;5.326;2023-02-12T09:05:41;103934.38;;;7.74;100.00
45403;BME280;47427;51.976;5.326;2023-02-12T09:09:05;103949.69;;;7.79;100.00
45403;BME280;47427;51.976;5.326;2023-02-12T09:12:34;103934.09;;;7.60;100.00
45403;BME280;47427;51.976;5.326;2023-02-12T09:16:06;103947.44;;;7.64;100.00
45403;BME280;47427;51.976;5.326;2023-02-12T09:19:44;103945.84;;;7.55;100.00
45403;BME280;47427;51.976;5.326;2023-02-12T09:23:12;103948.63;;;7.67;100.00
45403;BME280;47427;51.976;5.326;2023-02-12T09:26:34;103926.09;;;7.59;100.00
45403;BME280;47427;51.976;5.326;2023-02-12T09:29:55;103951.09;;;7.66;100.00
45403;BME280;47427;51.976;5.326;2023-02-12T09:33:20;103940.19;;;7.90;100.00
45403;BME280;47427;51.976;5.326;2023-02-12T09:36:47;103936.91;;;7.93;100.00
45403;BME280;47427;51.976;5.326;2023-02-12T09:40:25;103948.28;;;7.93;100.00
45403;BME280;47427;51.976;5.326;2023-02-12T09:44:21;103942.66;;;7.99;100.00
45403;BME280;47427;51.976;5.326;2023-02-12T09:51:44;103947.50;;;8.25;100.00
45403;BME280;47427;51.976;5.326;2023-02-12T09:55:33;103946.34;;;8.21;100.00
45403;BME280;47427;51.976;5.326;2023-02-12T09:59:05;103949.22;;;8.14;100.00
45403;BME280;47427;51.976;5.326;2023-02-12T10:02:45;103945.53;;;8.22;100.00
45403;BME280;47427;51.976;5.326;2023-02-12T10:06:47;103941.78;;;8.39;100.00
45403;BME280;47427;51.976;5.326;2023-02-12T10:10:57;103939.44;;;8.42;100.00
45403;BME280;47427;51.976;5.326;2023-02-12T10:18:55;103945.94;;;8.37;100.00
45403;BME280;47427;51.976;5.326;2023-02-12T10:26:40;103944.41;;;8.50;100.00
45403;BME280;47427;51.976;5.326;2023-02-12T10:34:21;103945.28;;;8.60;100.00
45403;BME280;47427;51.976;5.326;2023-02-12T10:38:15;103945.19;;;8.59;100.00
45403;BME280;47427;51.976;5.326;2023-02-12T10:45:48;103942.69;;;8.60;100.00
45403;BME280;47427;51.976;5.326;2023-02-12T10:49:17;103942.31;;;8.66;100.00
45403;BME280;47427;51.976;5.326;2023-02-12T10:53:01;103939.03;;;8.58;100.00
45403;BME280;47427;51.976;5.326;2023-02-12T10:56:28;103944.38;;;8.70;100.00
45403;BME280;47427;51.976;5.326;2023-02-12T11:00:33;103937.16;;;8.78;100.00
45403;BME280;47427;51.976;5.326;2023-02-12T11:04:31;103945.00;;;8.78;100.00
45403;BME280;47427;51.976;5.326;2023-02-12T11:07:47;103937.25;;;8.89;100.00
45403;BME280;47427;51.976;5.326;2023-02-12T11:11:29;103944.53;;;9.04;100.00
45403;BME280;47427;51.976;5.326;2023-02-12T11:14:57;103947.50;;;8.86;100.00
45403;BME280;47427;51.976;5.326;2023-02-12T11:18:33;103951.16;;;8.78;100.00
45403;BME280;47427;51.976;5.326;2023-02-12T11:22:12;103933.75;;;8.89;100.00
45403;BME280;47427;51.976;5.326;2023-02-12T11:25:58;103942.22;;;8.97;100.00
45403;BME280;47427;51.976;5.326;2023-02-12T11:29:22;103937.00;;;8.97;100.00
45403;BME280;47427;51.976;5.326;2023-02-12T11:33:13;103938.56;;;8.95;100.00
45403;BME280;47427;51.976;5.326;2023-02-12T11:37:02;103926.22;;;8.94;100.00
45403;BME280;47427;51.976;5.326;2023-02-12T11:40:38;103933.19;;;8.93;100.00
45403;BME280;47427;51.976;5.326;2023-02-12T11:44:31;103931.84;;;8.98;100.00
45403;BME280;47427;51.976;5.326;2023-02-12T11:48:00;103925.50;;;8.84;100.00
45403;BME280;47427;51.976;5.326;2023-02-12T11:51:52;103929.13;;;8.97;100.00
45403;BME280;47427;51.976;5.326;2023-02-12T11:55:36;103929.25;;;8.98;100.00
45403;BME280;47427;51.976;5.326;2023-02-12T11:59:27;103916.81;;;8.96;100.00
45403;BME280;47427;51.976;5.326;2023-02-12T12:03:28;103926.50;;;8.97;100.00
45403;BME280;47427;51.976;5.326;2023-02-12T12:07:28;103921.38;;;8.98;100.00
45403;BME280;47427;51.976;5.326;2023-02-12T12:11:28;103908.63;;;9.13;100.00
45403;BME280;47427;51.976;5.326;2023-02-12T12:23:33;103905.91;;;9.11;100.00
45403;BME280;47427;51.976;5.326;2023-02-12T12:31:37;103887.56;;;9.33;100.00
45403;BME280;47427;51.976;5.326;2023-02-12T12:35:00;103895.13;;;9.41;100.00
45403;BME280;47427;51.976;5.326;2023-02-12T12:59:33;103875.03;;;9.29;100.00
45403;BME280;47427;51.976;5.326;2023-02-12T13:11:38;103873.19;;;9.28;100.00
45403;BME280;47427;51.976;5.326;2023-02-12T13:27:06;103850.09;;;9.13;100.00
45403;BME280;47427;51.976;5.326;2023-02-12T13:31:05;103859.09;;;9.16;100.00
45403;BME280;47427;51.976;5.326;2023-02-12T13:34:33;103849.97;;;9.11;99.55
45403;BME280;47427;51.976;5.326;2023-02-12T13:38:19;103854.19;;;9.09;99.58
45403;BME280;47427;51.976;5.326;2023-02-12T13:42:49;103858.63;;;9.10;100.00
45403;BME280;47427;51.976;5.326;2023-02-12T13:49:58;103855.13;;;9.21;100.00
45403;BME280;47427;51.976;5.326;2023-02-12T13:57:30;103847.72;;;9.16;98.33
45403;BME280;47427;51.976;5.326;2023-02-12T14:01:09;103842.47;;;9.16;97.40
45403;BME280;47427;51.976;5.326;2023-02-12T14:05:02;103838.88;;;9.25;97.89
45403;BME280;47427;51.976;5.326;2023-02-12T14:08:43;103827.25;;;9.22;95.76
45403;BME280;47427;51.976;5.326;2023-02-12T14:12:27;103830.13;;;9.25;96.99
45403;BME280;47427;51.976;5.326;2023-02-12T14:15:53;103818.28;;;9.30;97.06
45403;BME280;47427;51.976;5.326;2023-02-12T14:23:33;103817.78;;;9.24;96.91
45403;BME280;47427;51.976;5.326;2023-02-12T14:26:57;103826.03;;;9.28;97.38
45403;BME280;47427;51.976;5.326;2023-02-12T14:30:35;103829.56;;;9.29;97.60
45403;BME280;47427;51.976;5.326;2023-02-12T14:37:43;103814.88;;;9.31;98.65
45403;BME280;47427;51.976;5.326;2023-02-12T14:41:26;103815.53;;;9.28;98.40
45403;BME280;47427;51.976;5.326;2023-02-12T14:45:03;103805.06;;;9.28;98.88
45403;BME280;47427;51.976;5.326;2023-02-12T14:49:00;103812.00;;;9.28;98.69
45403;BME280;47427;51.976;5.326;2023-02-12T14:52:28;103803.00;;;9.24;98.26
45403;BME280;47427;51.976;5.326;2023-02-12T14:55:59;103805.63;;;9.24;98.34
45403;BME280;47427;51.976;5.326;2023-02-12T14:59:45;103803.25;;;9.27;99.03
45403;BME280;47427;51.976;5.326;2023-02-12T15:07:26;103808.56;;;9.17;98.83
45403;BME280;47427;51.976;5.326;2023-02-12T15:11:05;103813.00;;;9.18;99.12
45403;BME280;47427;51.976;5.326;2023-02-12T15:18:51;103802.41;;;9.17;100.00
45403;BME280;47427;51.976;5.326;2023-02-12T15:22:48;103807.38;;;9.14;100.00
45403;BME280;47427;51.976;5.326;2023-02-12T15:26:23;103803.84;;;9.13;100.00
45403;BME280;47427;51.976;5.326;2023-02-12T15:29:51;103796.00;;;9.13;100.00
45403;BME280;47427;51.976;5.326;2023-02-12T15:33:32;103801.00;;;9.10;100.00
45403;BME280;47427;51.976;5.326;2023-02-12T15:37:29;103804.16;;;9.06;100.00
45403;BME280;47427;51.976;5.326;2023-02-12T15:40:57;103800.50;;;9.04;100.00
45403;BME280;47427;51.976;5.326;2023-02-12T15:44:25;103802.50;;;8.96;100.00
45403;BME280;47427;51.976;5.326;2023-02-12T15:48:14;103797.69;;;8.90;100.00
45403;BME280;47427;51.976;5.326;2023-02-12T15:51:39;103797.59;;;8.89;100.00
45403;BME280;47427;51.976;5.326;2023-02-12T15:55:13;103791.53;;;8.90;100.00
45403;BME280;47427;51.976;5.326;2023-02-12T15:58:53;103791.31;;;8.87;100.00
45403;BME280;47427;51.976;5.326;2023-02-12T16:02:25;103789.78;;;8.79;100.00
45403;BME280;47427;51.976;5.326;2023-02-12T16:05:50;103792.41;;;8.79;100.00
45403;BME280;47427;51.976;5.326;2023-02-12T16:09:22;103795.16;;;8.70;100.00
45403;BME280;47427;51.976;5.326;2023-02-12T16:13:30;103799.34;;;8.68;100.00
45403;BME280;47427;51.976;5.326;2023-02-12T16:17:15;103792.31;;;8.67;100.00
45403;BME280;47427;51.976;5.326;2023-02-12T16:21:01;103792.84;;;8.63;100.00
45403;BME280;47427;51.976;5.326;2023-02-12T16:24:53;103795.09;;;8.58;100.00
45403;BME280;47427;51.976;5.326;2023-02-12T16:28:38;103784.63;;;8.48;100.00
45403;BME280;47427;51.976;5.326;2023-02-12T16:32:03;103790.53;;;8.45;100.00
45403;BME280;47427;51.976;5.326;2023-02-12T16:35:44;103771.56;;;8.38;100.00
45403;BME280;47427;51.976;5.326;2023-02-12T16:43:25;103795.91;;;8.37;100.00
45403;BME280;47427;51.976;5.326;2023-02-12T16:47:19;103784.53;;;8.36;100.00
45403;BME280;47427;51.976;5.326;2023-02-12T16:50:55;103783.50;;;8.34;100.00
45403;BME280;47427;51.976;5.326;2023-02-12T16:54:38;103790.19;;;8.31;100.00
45403;BME280;47427;51.976;5.326;2023-02-12T16:58:02;103794.38;;;8.29;100.00
45403;BME280;47427;51.976;5.326;2023-02-12T17:01:35;103788.09;;;8.27;100.00
45403;BME280;47427;51.976;5.326;2023-02-12T17:05:14;103790.84;;;8.28;100.00
45403;BME280;47427;51.976;5.326;2023-02-12T17:08:43;103794.38;;;8.29;100.00
45403;BME280;47427;51.976;5.326;2023-02-12T17:12:09;103795.13;;;8.28;100.00
45403;BME280;47427;51.976;5.326;2023-02-12T17:16:01;103799.22;;;8.24;100.00
45403;BME280;47427;51.976;5.326;2023-02-12T17:19:32;103801.03;;;8.25;100.00
45403;BME280;47427;51.976;5.326;2023-02-12T17:23:35;103801.69;;;8.22;100.00
45403;BME280;47427;51.976;5.326;2023-02-12T17:26:56;103807.47;;;8.18;100.00
45403;BME280;47427;51.976;5.326;2023-02-12T17:30:22;103798.72;;;8.18;100.00
45403;BME280;47427;51.976;5.326;2023-02-12T17:34:27;103811.25;;;8.12;100.00
45403;BME280;47427;51.976;5.326;2023-02-12T17:37:56;103815.72;;;8.13;100.00
45403;BME280;47427;51.976;5.326;2023-02-12T17:41:18;103816.75;;;8.04;100.00
45403;BME280;47427;51.976;5.326;2023-02-12T17:44:42;103816.25;;;8.09;100.00
45403;BME280;47427;51.976;5.326;2023-02-12T17:48:05;103821.47;;;8.09;100.00
45403;BME280;47427;51.976;5.326;2023-02-12T17:51:30;103814.78;;;8.12;100.00
45403;BME280;47427;51.976;5.326;2023-02-12T17:54:54;103820.94;;;8.13;100.00
45403;BME280;47427;51.976;5.326;2023-02-12T17:58:24;103828.00;;;8.14;100.00
45403;BME280;47427;51.976;5.326;2023-02-12T18:01:56;103824.59;;;8.15;100.00
45403;BME280;47427;51.976;5.326;2023-02-12T18:05:26;103821.19;;;8.16;100.00
45403;BME280;47427;51.976;5.326;2023-02-12T18:09:07;103823.56;;;8.13;100.00
45403;BME280;47427;51.976;5.326;2023-02-12T18:12:49;103820.56;;;8.08;100.00
45403;BME280;47427;51.976;5.326;2023-02-12T18:16:10;103826.06;;;8.01;100.00
45403;BME280;47427;51.976;5.326;2023-02-12T18:19:35;103828.41;;;7.98;100.00
45403;BME280;47427;51.976;5.326;2023-02-12T18:23:02;103829.19;;;7.97;100.00
45403;BME280;47427;51.976;5.326;2023-02-12T18:26:34;103825.91;;;7.99;100.00
45403;BME280;47427;51.976;5.326;2023-02-12T18:29:55;103814.53;;;7.99;100.00
45403;BME280;47427;51.976;5.326;2023-02-12T18:33:34;103821.34;;;7.97;100.00
45403;BME280;47427;51.976;5.326;2023-02-12T18:37:16;103827.63;;;7.99;100.00
45403;BME280;47427;51.976;5.326;2023-02-12T18:40:46;103824.59;;;7.94;100.00
45403;BME280;47427;51.976;5.326;2023-02-12T18:44:20;103817.41;;;7.92;100.00
45403;BME280;47427;51.976;5.326;2023-02-12T18:47:52;103825.50;;;7.95;100.00
45403;BME280;47427;51.976;5.326;2023-02-12T18:51:22;103826.47;;;7.95;100.00
45403;BME280;47427;51.976;5.326;2023-02-12T18:54:44;103824.59;;;7.94;100.00
45403;BME280;47427;51.976;5.326;2023-02-12T18:58:16;103816.38;;;7.90;100.00
45403;BME280;47427;51.976;5.326;2023-02-12T19:01:42;103815.06;;;7.85;100.00
45403;BME280;47427;51.976;5.326;2023-02-12T19:05:09;103812.44;;;7.85;100.00
45403;BME280;47427;51.976;5.326;2023-02-12T19:08:34;103809.31;;;7.89;100.00
45403;BME280;47427;51.976;5.326;2023-02-12T19:12:45;103816.78;;;7.84;100.00
45403;BME280;47427;51.976;5.326;2023-02-12T19:16:17;103814.69;;;7.80;100.00
45403;BME280;47427;51.976;5.326;2023-02-12T19:19:43;103808.81;;;7.82;100.00
45403;BME280;47427;51.976;5.326;2023-02-12T19:23:11;103815.22;;;7.86;100.00
45403;BME280;47427;51.976;5.326;2023-02-12T19:26:34;103813.25;;;7.84;100.00
45403;BME280;47427;51.976;5.326;2023-02-12T19:30:03;103816.78;;;7.84;100.00
45403;BME280;47427;51.976;5.326;2023-02-12T19:34:02;103805.41;;;7.84;100.00
45403;BME280;47427;51.976;5.326;2023-02-12T19:37:28;103806.72;;;7.78;100.00
45403;BME280;47427;51.976;5.326;2023-02-12T19:41:05;103812.59;;;7.76;100.00
45403;BME280;47427;51.976;5.326;2023-02-12T19:44:32;103812.59;;;7.76;100.00
45403;BME280;47427;51.976;5.326;2023-02-12T19:47:55;103805.41;;;7.73;100.00
45403;BME280;47427;51.976;5.326;2023-02-12T19:51:20;103804.50;;;7.73;100.00
45403;BME280;47427;51.976;5.326;2023-02-12T19:54:44;103799.94;;;7.70;100.00
45403;BME280;47427;51.976;5.326;2023-02-12T19:58:17;103800.69;;;7.69;100.00
45403;BME280;47427;51.976;5.326;2023-02-12T20:01:48;103796.25;;;7.68;100.00
45403;BME280;47427;51.976;5.326;2023-02-12T20:05:12;103791.84;;;7.67;100.00
45403;BME280;47427;51.976;5.326;2023-02-12T20:08:40;103805.66;;;7.66;100.00
45403;BME280;47427;51.976;5.326;2023-02-12T20:12:04;103805.00;;;7.69;100.00
45403;BME280;47427;51.976;5.326;2023-02-12T20:15:41;103791.84;;;7.67;100.00
45403;BME280;47427;51.976;5.326;2023-02-12T20:19:21;103802.28;;;7.67;100.00
45403;BME280;47427;51.976;5.326;2023-02-12T20:22:53;103802.16;;;7.66;100.00
45403;BME280;47427;51.976;5.326;2023-02-12T20:26:19;103798.63;;;7.65;100.00
45403;BME280;47427;51.976;5.326;2023-02-12T20:29:50;103799.78;;;7.69;100.00
45403;BME280;47427;51.976;5.326;2023-02-12T20:33:18;103799.69;;;7.67;100.00
45403;BME280;47427;51.976;5.326;2023-02-12T20:36:47;103802.41;;;7.69;100.00
45403;BME280;47427;51.976;5.326;2023-02-12T20:40:12;103803.69;;;7.64;100.00
45403;BME280;47427;51.976;5.326;2023-02-12T20:43:37;103794.16;;;7.64;100.00
45403;BME280;47427;51.976;5.326;2023-02-12T20:47:04;103793.91;;;7.61;100.00
45403;BME280;47427;51.976;5.326;2023-02-12T20:50:28;103786.06;;;7.61;100.00
45403;BME280;47427;51.976;5.326;2023-02-12T20:53:51;103785.91;;;7.59;100.00
45403;BME280;47427;51.976;5.326;2023-02-12T20:57:27;103783.97;;;7.57;100.00
45403;BME280;47427;51.976;5.326;2023-02-12T21:01:09;103783.06;;;7.56;100.00
45403;BME280;47427;51.976;5.326;2023-02-12T21:04:34;103787.38;;;7.56;100.00
45403;BME280;47427;51.976;5.326;2023-02-12T21:07:57;103787.88;;;7.52;100.00
45403;BME280;47427;51.976;5.326;2023-02-12T21:11:43;103786.22;;;7.52;100.00
45403;BME280;47427;51.976;5.326;2023-02-12T21:15:09;103786.84;;;7.50;100.00
45403;BME280;47427;51.976;5.326;2023-02-12T21:18:37;103792.72;;;7.47;100.00
45403;BME280;47427;51.976;5.326;2023-02-12T21:21:59;103795.19;;;7.46;100.00
45403;BME280;47427;51.976;5.326;2023-02-12T21:25:40;103794.56;;;7.48;100.00
45403;BME280;47427;51.976;5.326;2023-02-12T21:33:02;103785.25;;;7.52;100.00